Time;durP1;ratioP1;P1;durP2;ratioP2;P2;SDS_P1;SDS_P2;PMS_P1;PMS_P2;Temp;Humidity;BMP_temperature;BMP_pressure;BME280_temperature;BME280_humidity;BME280_pressure;Samples;Min_cycle;Max_cycle;Signal;HPM_P1;HPM_P2
2022/01/06 00:01:06;;;;;;;3.53;2.30;;;;;;;2.01;100.00;99608.94;4922298;28;20133;-84
2022/01/06 00:03:34;;;;;;;3.97;2.17;;;;;;;2.04;100.00;99607.22;4920880;28;20047;-83
2022/01/06 00:06:09;;;;;;;4.93;2.20;;;;;;;1.93;100.00;99611.56;4938738;28;20050;-84
2022/01/06 00:08:39;;;;;;;4.70;2.10;;;;;;;1.89;100.00;99622.88;4941801;28;20508;-84
2022/01/06 00:11:08;;;;;;;6.23;3.10;;;;;;;1.73;100.00;99628.97;4964757;28;20048;-84
2022/01/06 00:14:00;;;;;;;5.27;2.03;;;;;;;1.72;100.00;99635.06;4953206;28;20061;-83
2022/01/06 00:16:41;;;;;;;5.57;1.95;;;;;;;1.76;100.00;99639.38;4928056;28;20074;-85
2022/01/06 00:24:27;;;;;;;5.83;2.10;;;;;;;1.62;100.00;99640.28;4956819;28;20043;-84
2022/01/06 00:26:57;;;;;;;4.50;2.60;;;;;;;1.60;100.00;99651.56;4966615;28;20038;-84
2022/01/06 00:29:24;;;;;;;4.33;2.00;;;;;;;1.58;100.00;99653.28;4920935;28;20055;-84
2022/01/06 00:31:54;;;;;;;4.30;2.00;;;;;;;1.53;100.00;99661.09;4951719;28;20043;-85
2022/01/06 00:34:24;;;;;;;8.53;2.80;;;;;;;1.61;100.00;99656.75;4941334;28;20489;-85
2022/01/06 00:36:51;;;;;;;4.90;2.23;;;;;;;1.52;100.00;99664.56;4929447;28;20045;-84
2022/01/06 00:39:18;;;;;;;7.27;3.00;;;;;;;1.66;100.00;99656.75;4963919;28;20051;-84
2022/01/06 00:41:45;;;;;;;3.37;1.90;;;;;;;1.63;100.00;99668.03;4923589;28;20042;-84
2022/01/06 00:44:11;;;;;;;5.53;2.50;;;;;;;1.62;100.00;99673.25;4957495;28;20515;-84
2022/01/06 00:46:38;;;;;;;4.90;2.47;;;;;;;1.66;100.00;99678.44;4939753;28;20047;-83
2022/01/06 00:49:05;;;;;;;4.00;2.03;;;;;;;1.65;100.00;99679.31;4941027;28;20113;-83
2022/01/06 00:51:31;;;;;;;6.23;3.00;;;;;;;1.66;100.00;99681.03;4938678;28;20043;-83
2022/01/06 00:53:58;;;;;;;9.20;2.20;;;;;;;1.60;100.00;99695.81;4927729;28;20049;-84
2022/01/06 00:56:25;;;;;;;6.23;1.77;;;;;;;1.57;100.00;99690.59;4953901;28;20058;-84
2022/01/06 00:58:51;;;;;;;4.33;2.47;;;;;;;1.54;100.00;99708.81;4925187;28;20051;-85
2022/01/06 01:01:18;;;;;;;4.13;2.63;;;;;;;1.50;100.00;99702.72;4929648;29;20054;-83
2022/01/06 01:03:45;;;;;;;5.37;1.80;;;;;;;1.50;100.00;99701.84;4937309;28;20066;-84
2022/01/06 01:06:12;;;;;;;4.63;2.13;;;;;;;1.54;100.00;99701.00;4942376;28;20987;-84
2022/01/06 01:08:40;;;;;;;4.73;1.90;;;;;;;1.55;100.00;99700.13;4953241;28;20051;-84
2022/01/06 01:11:07;;;;;;;3.60;2.00;;;;;;;1.52;100.00;99705.34;4908533;29;20043;-86
2022/01/06 01:13:42;;;;;;;4.57;2.10;;;;;;;1.54;100.00;99707.09;4915646;29;20052;-85
2022/01/06 01:16:21;;;;;;;5.73;2.17;;;;;;;1.50;100.00;99718.34;4921473;29;20488;-84
2022/01/06 01:18:49;;;;;;;5.70;2.20;;;;;;;1.44;100.00;99720.97;4940419;29;20047;-84
2022/01/06 01:21:20;;;;;;;4.27;2.70;;;;;;;1.40;100.00;99721.81;4949628;29;20062;-83
2022/01/06 01:23:47;;;;;;;6.53;2.00;;;;;;;1.31;100.00;99717.47;4955867;28;20058;-84
2022/01/06 01:26:13;;;;;;;6.80;2.37;;;;;;;1.35;100.00;99733.97;4944428;28;20053;-82
2022/01/06 01:28:45;;;;;;;4.63;2.00;;;;;;;1.41;100.00;99723.53;4939971;28;20058;-84
2022/01/06 01:33:47;;;;;;;7.95;2.83;;;;;;;1.31;100.00;99743.47;4952505;29;20051;-83
2022/01/06 01:36:14;;;;;;;4.00;1.90;;;;;;;1.33;100.00;99743.47;5020006;23;20038;-83
2022/01/06 01:38:41;;;;;;;4.47;2.60;;;;;;;1.38;100.00;99749.56;4981294;28;20503;-83
2022/01/06 01:41:08;;;;;;;5.37;1.80;;;;;;;1.29;100.00;99746.94;4995583;28;20037;-85
2022/01/06 01:43:36;;;;;;;5.27;1.73;;;;;;;1.30;100.00;99751.28;4963296;28;20419;-84
2022/01/06 01:46:17;;;;;;;5.23;1.80;;;;;;;1.34;100.00;99746.06;4945074;28;20047;-85
2022/01/06 01:48:51;;;;;;;6.40;1.80;;;;;;;1.30;100.00;99762.56;4967100;28;20050;-84
2022/01/06 01:51:18;;;;;;;3.85;1.88;;;;;;;1.22;100.00;99769.47;4949993;28;20052;-82
2022/01/06 01:53:45;;;;;;;7.33;2.30;;;;;;;1.25;100.00;99772.06;4977344;28;20042;-83
2022/01/06 01:56:12;;;;;;;3.27;1.63;;;;;;;1.23;100.00;99780.75;4961508;28;20439;-83
2022/01/06 01:58:40;;;;;;;3.90;1.80;;;;;;;1.18;100.00;99782.47;4965071;28;20578;-83
2022/01/06 02:01:07;;;;;;;3.90;1.70;;;;;;;1.19;100.00;99794.63;4962996;28;20046;-83
2022/01/06 02:03:34;;;;;;;4.80;1.97;;;;;;;1.10;100.00;99796.34;4960582;28;20082;-83
2022/01/06 02:06:01;;;;;;;5.33;1.90;;;;;;;1.12;100.00;99805.00;4964498;28;20045;-83
2022/01/06 02:08:29;;;;;;;4.83;2.00;;;;;;;1.12;100.00;99815.41;4956545;28;20135;-84
2022/01/06 02:10:56;;;;;;;4.70;1.70;;;;;;;1.10;100.00;99816.28;4960594;28;20129;-84
2022/01/06 02:13:28;;;;;;;4.27;2.17;;;;;;;0.96;100.00;99828.34;4965854;28;20042;-83
2022/01/06 02:15:56;;;;;;;2.80;1.70;;;;;;;1.01;100.00;99832.72;4958955;28;20507;-85
2022/01/06 02:18:23;;;;;;;6.20;1.50;;;;;;;0.94;100.00;99846.53;4956720;28;20053;-84
2022/01/06 02:20:49;;;;;;;3.83;1.33;;;;;;;0.92;100.00;99848.25;4945760;28;20423;-83
2022/01/06 02:23:17;;;;;;;4.40;1.50;;;;;;;1.00;100.00;99853.47;4962833;28;20070;-83
2022/01/06 02:25:44;;;;;;;4.27;1.30;;;;;;;1.03;100.00;99850.91;4957721;28;20415;-83
2022/01/06 02:28:11;;;;;;;2.03;1.10;;;;;;;1.01;100.00;99857.81;4969724;28;20126;-84
2022/01/06 02:30:38;;;;;;;2.37;1.20;;;;;;;1.02;100.00;99864.78;4954387;28;20049;-84
2022/01/06 02:33:06;;;;;;;3.03;1.67;;;;;;;0.61;98.98;99872.34;4953437;28;20061;-84
2022/01/06 02:35:33;;;;;;;3.17;1.00;;;;;;;0.66;97.43;99876.69;4962109;28;20046;-84
2022/01/06 02:38:01;;;;;;;1.63;1.23;;;;;;;0.79;99.65;99880.25;4945815;28;20057;-83
2022/01/06 02:40:29;;;;;;;1.83;0.90;;;;;;;0.68;98.47;99884.53;4963041;28;20057;-83
2022/01/06 02:42:58;;;;;;;3.10;1.87;;;;;;;0.80;100.00;99900.19;4956241;28;20046;-83
2022/01/06 02:45:27;;;;;;;2.33;1.20;;;;;;;0.81;100.00;99908.00;4941937;28;20050;-83
2022/01/06 02:47:55;;;;;;;1.97;1.40;;;;;;;0.77;99.73;99906.25;4940721;28;20042;-83
2022/01/06 02:50:23;;;;;;;2.23;1.00;;;;;;;0.64;96.54;99909.59;4975304;28;20038;-83
2022/01/06 02:52:50;;;;;;;1.90;1.30;;;;;;;0.66;96.91;99917.41;4957616;28;20414;-83
2022/01/06 02:55:17;;;;;;;4.53;1.50;;;;;;;0.52;92.76;99919.91;4957497;28;20046;-84
2022/01/06 02:57:45;;;;;;;1.60;1.10;;;;;;;0.49;94.78;99922.47;4965782;28;20042;-84
2022/01/06 03:00:15;;;;;;;1.73;0.97;;;;;;;0.51;95.06;99939.84;4957617;28;20570;-83
2022/01/06 03:02:43;;;;;;;3.23;1.00;;;;;;;0.35;93.90;99937.97;4973170;28;20038;-84
2022/01/06 03:05:11;;;;;;;4.27;1.13;;;;;;;0.36;92.09;99946.63;4960306;28;20133;-83
2022/01/06 03:07:38;;;;;;;3.30;1.10;;;;;;;0.32;92.57;99940.50;4969240;28;20082;-83
2022/01/06 03:10:07;;;;;;;1.70;0.97;;;;;;;0.29;92.84;99966.47;4952451;28;20042;-84
2022/01/06 03:12:39;;;;;;;1.10;0.80;;;;;;;0.21;91.40;99965.53;4962231;28;20073;-84
2022/01/06 03:15:08;;;;;;;1.37;0.67;;;;;;;0.25;90.64;99972.47;4977675;28;20038;-83
2022/01/06 03:17:36;;;;;;;2.10;0.93;;;;;;;0.20;88.32;99982.84;4956184;28;20050;-84
2022/01/06 03:20:05;;;;;;;2.13;1.10;;;;;;;0.12;87.95;99981.88;4977000;28;20046;-83
2022/01/06 03:22:31;;;;;;;1.47;0.97;;;;;;;0.06;89.56;99986.13;4959204;28;20046;-83
2022/01/06 03:24:58;;;;;;;2.00;0.97;;;;;;;0.10;90.77;99996.59;4977000;28;20408;-83
2022/01/06 03:27:25;;;;;;;2.87;0.90;;;;;;;0.08;89.94;100015.59;4976686;28;20498;-83
2022/01/06 03:29:52;;;;;;;5.77;0.90;;;;;;;-0.07;90.32;100017.16;4978269;28;20042;-83
2022/01/06 03:32:19;;;;;;;1.73;0.80;;;;;;;-0.03;91.03;100005.94;4958367;28;20038;-84
2022/01/06 03:34:46;;;;;;;6.40;1.00;;;;;;;-0.10;89.46;100024.91;4961796;28;20057;-84
2022/01/06 03:37:14;;;;;;;3.30;0.80;;;;;;;-0.28;88.59;100027.28;4961572;28;20049;-84
2022/01/06 03:39:42;;;;;;;1.70;0.83;;;;;;;-0.24;88.06;100039.47;4960277;28;20050;-82
2022/01/06 03:42:12;;;;;;;2.03;1.10;;;;;;;-0.26;87.63;100035.94;4970616;28;20043;-84
2022/01/06 03:44:39;;;;;;;1.17;0.70;;;;;;;-0.21;90.85;100049.88;4964040;28;20551;-83
2022/01/06 03:47:06;;;;;;;3.10;1.07;;;;;;;-0.27;90.32;100062.75;4974079;28;20066;-83
2022/01/06 03:49:33;;;;;;;1.87;0.80;;;;;;;-0.35;91.21;100069.56;4965612;28;20052;-84
2022/01/06 03:52:00;;;;;;;3.27;0.90;;;;;;;-0.31;89.50;100066.19;4968465;28;20442;-84
2022/01/06 03:54:26;;;;;;;3.97;1.60;;;;;;;-0.41;89.06;100087.66;4995942;28;20057;-82
2022/01/06 03:56:53;;;;;;;5.23;1.17;;;;;;;-0.37;90.88;100094.63;4953372;28;20053;-83
2022/01/06 03:59:20;;;;;;;4.63;1.23;;;;;;;-0.47;89.69;100096.22;4975617;28;20046;-82
2022/01/06 04:01:46;;;;;;;1.27;0.80;;;;;;;-0.65;86.68;100089.03;4975831;28;20492;-82
2022/01/06 04:04:14;;;;;;;3.40;0.80;;;;;;;-0.58;88.89;100103.84;4944000;28;20125;-83
2022/01/06 04:06:43;;;;;;;1.43;0.70;;;;;;;-0.57;86.45;100113.38;4966682;28;20511;-82
2022/01/06 04:09:10;;;;;;;3.20;0.90;;;;;;;-0.57;87.82;100117.69;4976314;28;20050;-83
2022/01/06 04:11:36;;;;;;;7.23;1.13;;;;;;;-0.50;89.46;100119.53;4972356;28;20054;-84
2022/01/06 04:14:03;;;;;;;1.90;0.80;;;;;;;-0.66;85.15;100127.94;4959832;28;20046;-81
2022/01/06 04:16:38;;;;;;;4.17;1.10;;;;;;;-0.61;85.07;100128.84;4961537;28;20058;-83
2022/01/06 04:19:06;;;;;;;2.20;0.70;;;;;;;-0.74;85.80;100139.91;4944485;28;20479;-83
2022/01/06 04:21:33;;;;;;;7.13;1.37;;;;;;;-0.67;87.05;100153.00;4959031;28;20042;-87
2022/01/06 04:24:00;;;;;;;1.93;1.13;;;;;;;-0.77;86.90;100150.19;4960148;28;20042;-85
2022/01/06 04:26:27;;;;;;;2.93;0.80;;;;;;;-0.84;85.51;100154.44;4959596;28;20104;-85
2022/01/06 04:28:54;;;;;;;4.60;1.20;;;;;;;-0.78;87.15;100158.84;4968048;28;20050;-82
2022/01/06 04:31:21;;;;;;;2.30;1.10;;;;;;;-0.68;88.85;100166.78;4961822;28;20049;-85
2022/01/06 04:33:48;;;;;;;3.07;0.97;;;;;;;-0.77;87.78;100165.75;4952112;28;20047;-84
2022/01/06 04:36:14;;;;;;;4.90;1.00;;;;;;;-0.86;89.15;100175.13;4973476;28;20046;-83
2022/01/06 04:38:41;;;;;;;2.20;1.07;;;;;;;-0.89;89.40;100172.50;4961878;28;20042;-86
2022/01/06 04:41:07;;;;;;;1.83;1.17;;;;;;;-0.88;87.75;100178.56;4971078;28;20034;-84
2022/01/06 04:43:34;;;;;;;5.87;1.23;;;;;;;-1.00;87.19;100179.22;4962292;28;20058;-83
2022/01/06 04:46:01;;;;;;;2.97;0.90;;;;;;;-1.06;86.86;100173.03;4985441;28;20065;-84
2022/01/06 04:48:28;;;;;;;4.30;1.30;;;;;;;-0.91;89.15;100178.50;4948410;28;20042;-85
2022/01/06 04:50:55;;;;;;;4.43;1.10;;;;;;;-0.83;87.84;100178.66;4953499;28;20042;-84
2022/01/06 04:53:22;;;;;;;1.53;0.83;;;;;;;-0.93;89.06;100186.22;4964372;28;20042;-84
2022/01/06 04:55:51;;;;;;;3.63;1.50;;;;;;;-1.04;90.49;100179.13;4973886;28;20038;-83
2022/01/06 04:58:18;;;;;;;5.33;2.63;;;;;;;-1.06;92.05;100178.22;4981646;28;20038;-82
2022/01/06 05:00:44;;;;;;;2.50;1.60;;;;;;;-0.94;91.03;100175.84;4958917;28;20177;-81
2022/01/06 05:03:11;;;;;;;1.63;0.90;;;;;;;-1.04;90.65;100177.41;4957836;28;20034;-84
2022/01/06 05:05:38;;;;;;;3.67;1.53;;;;;;;-1.05;90.90;100183.44;4959049;28;20047;-85
2022/01/06 05:08:05;;;;;;;2.70;1.00;;;;;;;-1.09;89.24;100189.41;4958132;28;20045;-82
2022/01/06 05:10:31;;;;;;;1.27;0.97;;;;;;;-1.07;89.79;100189.44;4970219;28;20083;-85
2022/01/06 05:12:58;;;;;;;4.83;1.40;;;;;;;-1.09;91.52;100198.88;4958625;28;20491;-85
2022/01/06 05:15:25;;;;;;;3.23;1.70;;;;;;;-1.07;91.23;100202.41;4964782;28;20050;-82
2022/01/06 05:17:56;;;;;;;3.37;1.63;;;;;;;-1.03;89.71;100204.19;4964703;28;20415;-85
2022/01/06 05:20:25;;;;;;;4.37;1.30;;;;;;;-1.01;89.33;100216.38;4971881;28;20077;-81
2022/01/06 05:22:56;;;;;;;3.20;1.03;;;;;;;-1.03;89.88;100209.38;4955179;28;20038;-84
2022/01/06 05:25:27;;;;;;;1.57;0.93;;;;;;;-1.22;90.90;100214.22;4943219;28;20050;-85
2022/01/06 05:27:55;;;;;;;1.77;1.03;;;;;;;-1.14;91.68;100220.41;4957737;28;20062;-85
2022/01/06 05:30:22;;;;;;;2.80;1.17;;;;;;;-1.09;91.23;100225.72;4959107;28;20513;-83
2022/01/06 05:32:49;;;;;;;2.50;1.00;;;;;;;-1.21;91.23;100226.31;4958491;28;20043;-86
2022/01/06 05:35:16;;;;;;;3.60;0.97;;;;;;;-1.22;91.48;100232.34;4954908;28;20045;-84
2022/01/06 05:37:43;;;;;;;4.03;1.53;;;;;;;-1.20;93.20;100237.56;4958431;28;20442;-84
2022/01/06 05:40:10;;;;;;;3.67;1.30;;;;;;;-1.12;92.01;100241.19;4955807;28;20038;-81
2022/01/06 05:42:37;;;;;;;2.37;1.00;;;;;;;-1.28;92.54;100239.13;4970885;28;20050;-84
2022/01/06 05:45:05;;;;;;;2.70;1.10;;;;;;;-1.21;93.55;100247.06;4942387;28;20050;-81
2022/01/06 05:47:31;;;;;;;4.53;1.37;;;;;;;-1.21;92.98;100249.66;4941751;28;20054;-84
2022/01/06 05:49:58;;;;;;;2.93;2.00;;;;;;;-1.30;94.54;100257.25;4958414;28;20427;-82
2022/01/06 05:52:24;;;;;;;2.70;1.07;;;;;;;-1.28;93.36;100259.84;4971469;28;20404;-85
2022/01/06 05:54:51;;;;;;;2.67;1.20;;;;;;;-1.34;95.08;100272.72;4952222;28;20050;-84
2022/01/06 05:57:19;;;;;;;1.93;1.10;;;;;;;-1.37;95.54;100278.69;4972532;28;20058;-80
2022/01/06 05:59:46;;;;;;;2.83;1.20;;;;;;;-1.37;96.29;100280.41;4942781;28;20410;-81
2022/01/06 06:02:13;;;;;;;1.20;0.83;;;;;;;-1.37;96.82;100281.28;4956337;28;20042;-84
2022/01/06 06:04:40;;;;;;;1.73;0.90;;;;;;;-1.36;96.52;100282.16;4965962;28;20109;-84
2022/01/06 06:07:07;;;;;;;4.37;1.70;;;;;;;-1.30;96.60;100283.16;4957385;28;20047;-85
2022/01/06 06:09:34;;;;;;;1.70;1.10;;;;;;;-1.35;97.00;100282.16;4957847;28;20455;-85
2022/01/06 06:12:00;;;;;;;2.20;1.00;;;;;;;-1.40;96.92;100293.28;4963733;28;20046;-83
2022/01/06 06:14:27;;;;;;;4.53;1.20;;;;;;;-1.30;97.18;100293.53;4960968;28;20046;-85
2022/01/06 06:16:54;;;;;;;5.80;1.30;;;;;;;-1.34;97.74;100301.22;4974799;28;20046;-84
2022/01/06 06:19:20;;;;;;;4.30;1.67;;;;;;;-1.36;96.58;100310.66;4961154;28;20064;-82
2022/01/06 06:21:47;;;;;;;6.67;2.13;;;;;;;-1.40;96.75;100312.31;4947701;28;20054;-84
2022/01/06 06:24:14;;;;;;;5.07;1.40;;;;;;;-1.39;97.74;100315.78;4957304;28;20057;-84
2022/01/06 06:26:41;;;;;;;2.93;1.40;;;;;;;-1.41;98.71;100326.09;4974200;28;20128;-83
2022/01/06 06:29:07;;;;;;;3.67;1.20;;;;;;;-1.41;98.98;100320.94;4976102;28;20054;-84
2022/01/06 06:31:34;;;;;;;2.10;0.90;;;;;;;-1.38;99.03;100328.75;4954723;28;20093;-85
2022/01/06 06:34:01;;;;;;;3.73;2.00;;;;;;;-1.30;99.97;100334.09;4956517;28;20687;-84
2022/01/06 06:36:27;;;;;;;2.50;1.30;;;;;;;-1.28;100.00;100346.25;4950043;28;20112;-82
2022/01/06 06:38:54;;;;;;;5.03;1.40;;;;;;;-1.31;100.00;100345.31;4942584;28;20416;-85
2022/01/06 06:41:23;;;;;;;4.10;1.20;;;;;;;-1.36;100.00;100342.63;4960593;28;20052;-83
2022/01/06 06:43:53;;;;;;;5.77;1.20;;;;;;;-1.39;100.00;100355.50;4951558;28;20101;-84
2022/01/06 06:46:21;;;;;;;3.67;1.67;;;;;;;-1.40;100.00;100352.91;4948731;28;20046;-83
2022/01/06 06:48:48;;;;;;;5.00;1.20;;;;;;;-1.29;100.00;100367.81;4972255;28;20137;-82
2022/01/06 06:51:15;;;;;;;3.53;1.40;;;;;;;-1.31;100.00;100373.81;4939206;28;20058;-84
2022/01/06 06:53:43;;;;;;;2.50;1.20;;;;;;;-1.44;100.00;100372.66;4964375;28;20073;-82
2022/01/06 06:56:10;;;;;;;5.37;1.10;;;;;;;-1.42;100.00;100373.59;4958910;28;20061;-84
2022/01/06 06:58:37;;;;;;;1.90;1.27;;;;;;;-1.47;100.00;100377.78;4944461;28;20419;-83
2022/01/06 07:01:06;;;;;;;5.23;1.50;;;;;;;-1.36;100.00;100375.44;4943671;28;20133;-83
2022/01/06 07:03:33;;;;;;;3.10;1.33;;;;;;;-1.37;100.00;100382.31;4944212;28;20050;-84
2022/01/06 07:06:00;;;;;;;3.40;1.37;;;;;;;-1.47;100.00;100389.00;4954625;28;20626;-84
2022/01/06 07:08:27;;;;;;;2.67;1.30;;;;;;;-1.49;100.00;100388.13;4963133;28;20818;-84
2022/01/06 07:10:53;;;;;;;4.90;1.27;;;;;;;-1.44;100.00;100385.59;4975313;28;20100;-85
2022/01/06 07:13:20;;;;;;;3.67;1.00;;;;;;;-1.50;100.00;100394.13;4959286;28;20038;-84
2022/01/06 07:15:47;;;;;;;4.03;1.30;;;;;;;-1.33;100.00;100401.44;4944242;28;20046;-84
2022/01/06 07:18:14;;;;;;;3.30;1.60;;;;;;;-1.49;100.00;100400.19;4958741;28;20050;-84
2022/01/06 07:20:41;;;;;;;3.73;1.30;;;;;;;-1.48;100.00;100407.13;4960061;28;20054;-83
2022/01/06 07:23:08;;;;;;;2.17;1.17;;;;;;;-1.49;100.00;100420.91;4954662;28;20069;-86
2022/01/06 07:25:35;;;;;;;5.30;1.60;;;;;;;-1.44;100.00;100425.34;4959982;28;20092;-84
2022/01/06 07:28:02;;;;;;;4.47;1.17;;;;;;;-1.42;100.00;100430.59;4961774;28;20138;-84
2022/01/06 07:30:31;;;;;;;4.63;1.57;;;;;;;-1.40;100.00;100439.28;4944076;28;20073;-83
2022/01/06 07:32:58;;;;;;;3.87;1.30;;;;;;;-1.41;100.00;100442.72;4974105;28;20042;-83
2022/01/06 07:35:25;;;;;;;4.70;1.30;;;;;;;-1.47;100.00;100451.19;4975686;28;20046;-82
2022/01/06 07:37:52;;;;;;;3.47;1.90;;;;;;;-1.47;100.00;100461.56;4973459;28;20042;-84
2022/01/06 07:40:22;;;;;;;4.17;1.80;;;;;;;-1.39;100.00;100461.75;4959074;28;20042;-81
2022/01/06 07:42:50;;;;;;;4.70;1.70;;;;;;;-1.48;100.00;100472.75;4957509;28;20038;-81
2022/01/06 07:45:20;;;;;;;4.27;1.40;;;;;;;-1.47;100.00;100476.22;4958822;28;20073;-84
2022/01/06 07:48:04;;;;;;;2.73;1.50;;;;;;;-1.48;100.00;100482.25;4957356;28;20046;-83
2022/01/06 07:50:34;;;;;;;8.48;1.52;;;;;;;-1.47;100.00;100492.66;4958090;28;20077;-81
2022/01/06 07:53:02;;;;;;;3.03;1.23;;;;;;;-1.47;100.00;100484.88;4957295;28;20089;-81
2022/01/06 07:55:28;;;;;;;2.83;1.90;;;;;;;-1.28;100.00;100501.75;4974634;28;20046;-83
2022/01/06 07:57:55;;;;;;;3.47;1.57;;;;;;;-1.33;100.00;100500.78;4957385;28;20476;-82
2022/01/06 08:00:25;;;;;;;3.90;1.30;;;;;;;-1.27;100.00;100497.44;4958245;28;20074;-84
2022/01/06 08:02:53;;;;;;;3.27;1.30;;;;;;;-1.30;100.00;100506.03;4941688;28;20515;-84
2022/01/06 08:05:23;;;;;;;2.40;1.70;;;;;;;-1.20;100.00;100513.19;4976828;28;20912;-84
2022/01/06 08:07:50;;;;;;;2.57;1.40;;;;;;;-1.23;100.00;100509.66;4976656;28;20515;-83
2022/01/06 08:10:18;;;;;;;6.20;2.43;;;;;;;-1.18;100.00;100514.13;4977542;28;20045;-84
2022/01/06 08:12:44;;;;;;;3.73;1.50;;;;;;;-1.21;100.00;100511.44;4960377;28;20396;-84
2022/01/06 08:15:11;;;;;;;3.13;1.27;;;;;;;-1.17;100.00;100522.78;4961530;28;20053;-84
2022/01/06 08:17:38;;;;;;;4.93;1.50;;;;;;;-1.04;100.00;100521.34;4976307;28;20408;-81
2022/01/06 08:20:06;;;;;;;4.83;1.60;;;;;;;-1.13;100.00;100525.47;4977630;28;20046;-83
2022/01/06 08:22:33;;;;;;;4.93;2.03;;;;;;;-1.13;100.00;100534.97;4992294;28;20047;-83
2022/01/06 08:25:00;;;;;;;5.47;1.53;;;;;;;-1.04;100.00;100531.72;4977355;28;20105;-84
2022/01/06 08:27:29;;;;;;;4.37;1.60;;;;;;;-1.00;100.00;100536.16;4959725;28;20100;-83
2022/01/06 08:29:55;;;;;;;8.27;1.70;;;;;;;-1.05;100.00;100532.56;4957029;28;20431;-85
2022/01/06 08:32:22;;;;;;;4.73;1.60;;;;;;;-1.02;100.00;100532.63;4939640;28;20118;-86
2022/01/06 08:34:49;;;;;;;3.10;1.40;;;;;;;-0.98;100.00;100543.13;4938033;28;1019334;-83
2022/01/06 08:37:19;;;;;;;5.57;1.67;;;;;;;-0.87;100.00;100551.13;4957170;28;20046;-83
2022/01/06 08:39:46;;;;;;;1.70;1.20;;;;;;;-0.89;100.00;100560.59;4981484;28;20050;-84
2022/01/06 08:42:12;;;;;;;4.37;1.43;;;;;;;-0.89;100.00;100561.47;4941887;28;20073;-84
2022/01/06 08:44:42;;;;;;;6.83;1.50;;;;;;;-0.85;100.00;100562.41;4959481;28;20042;-83
2022/01/06 08:47:09;;;;;;;2.37;1.53;;;;;;;-0.85;100.00;100572.78;4941185;28;20051;-83
2022/01/06 08:49:36;;;;;;;6.23;2.03;;;;;;;-0.69;100.00;100574.91;4957837;28;20052;-83
2022/01/06 08:52:04;;;;;;;5.97;1.50;;;;;;;-0.70;100.00;100570.56;4941618;28;20078;-82
2022/01/06 08:54:31;;;;;;;5.80;1.50;;;;;;;-0.61;100.00;100588.06;4958502;28;20047;-82
2022/01/06 08:56:58;;;;;;;2.27;1.50;;;;;;;-0.68;100.00;100587.03;4973082;28;20054;-83
2022/01/06 08:59:24;;;;;;;2.20;1.37;;;;;;;-0.54;100.00;100589.09;4958453;28;20406;-82
2022/01/06 09:01:51;;;;;;;9.40;2.53;;;;;;;-0.47;100.00;100594.47;4956583;28;20050;-83
2022/01/06 09:04:20;;;;;;;3.67;1.40;;;;;;;-0.41;100.00;100601.53;4942794;28;20066;-83
2022/01/06 09:07:00;;;;;;;5.33;1.30;;;;;;;-0.39;100.00;100611.09;4957053;28;20042;-85
2022/01/06 09:09:27;;;;;;;8.73;2.30;;;;;;;-0.38;100.00;100617.16;4942809;28;20077;-84
2022/01/06 09:11:54;;;;;;;2.93;1.17;;;;;;;-0.36;100.00;100615.47;4968434;28;20053;-85
2022/01/06 09:14:22;;;;;;;3.93;1.67;;;;;;;-0.32;100.00;100623.38;4961751;28;20057;-84
2022/01/06 09:16:50;;;;;;;4.37;2.03;;;;;;;-0.09;99.01;100623.84;4960553;28;20054;-85
2022/01/06 09:19:17;;;;;;;4.33;1.60;;;;;;;-0.11;99.67;100628.16;4956319;28;20042;-84
2022/01/06 09:21:43;;;;;;;5.30;1.73;;;;;;;-0.15;100.00;100621.16;4972872;28;20050;-85
2022/01/06 09:24:10;;;;;;;5.17;1.80;;;;;;;-0.03;99.53;100630.91;4957918;28;20054;-80
2022/01/06 09:26:38;;;;;;;5.47;1.30;;;;;;;-0.03;97.71;100642.19;4956727;28;20137;-85
2022/01/06 09:29:06;;;;;;;3.70;1.50;;;;;;;0.05;97.62;100644.06;4957599;28;20069;-83
2022/01/06 09:31:34;;;;;;;3.40;1.60;;;;;;;0.01;97.49;100656.13;4956158;28;20454;-83
2022/01/06 09:34:03;;;;;;;6.57;1.60;;;;;;;0.12;93.98;100649.44;4958520;28;20038;-83
2022/01/06 09:36:31;;;;;;;2.87;1.43;;;;;;;0.17;92.84;100657.31;4956123;28;20182;-83
2022/01/06 09:38:59;;;;;;;4.20;1.33;;;;;;;0.22;91.46;100655.69;4960488;28;20034;-86
2022/01/06 09:41:26;;;;;;;6.67;2.33;;;;;;;0.32;89.68;100655.03;4969155;28;20442;-85
2022/01/06 09:43:54;;;;;;;5.03;3.00;;;;;;;0.37;90.88;100665.53;4975110;28;20042;-83
2022/01/06 09:46:21;;;;;;;5.63;4.33;;;;;;;0.36;91.48;100664.66;4948929;28;20046;-84
2022/01/06 09:48:48;;;;;;;6.20;1.80;;;;;;;0.36;91.22;100669.88;4998337;28;20097;-82
2022/01/06 09:51:16;;;;;;;3.93;2.43;;;;;;;0.37;90.67;100670.75;4946948;28;20105;-84
2022/01/06 09:53:43;;;;;;;6.27;2.10;;;;;;;0.42;91.03;100667.41;4982379;28;20103;-84
2022/01/06 09:56:10;;;;;;;3.33;1.50;;;;;;;0.48;89.09;100672.72;4990808;28;20050;-83
2022/01/06 09:58:37;;;;;;;4.73;1.77;;;;;;;0.36;87.17;100671.59;4955841;28;20694;-83
2022/01/06 10:01:03;;;;;;;2.10;1.10;;;;;;;0.54;87.35;100682.38;4955798;28;20156;-86
2022/01/06 10:03:39;;;;;;;4.17;2.23;;;;;;;0.54;88.03;100683.25;4973119;28;20037;-84
2022/01/06 10:06:26;;;;;;;4.50;2.00;;;;;;;0.53;86.13;100676.28;4952831;28;20050;-83
2022/01/06 10:09:01;;;;;;;5.33;1.37;;;;;;;0.60;82.16;100679.03;4970265;28;20046;-81
2022/01/06 10:11:30;;;;;;;5.00;1.63;;;;;;;0.71;83.54;100682.69;4957798;28;20046;-84
2022/01/06 10:14:05;;;;;;;2.00;1.60;;;;;;;0.80;83.80;100685.47;4973334;28;20050;-82
2022/01/06 10:16:32;;;;;;;2.77;1.50;;;;;;;0.75;83.22;100690.56;4958370;28;20046;-83
2022/01/06 10:19:11;;;;;;;1.90;0.83;;;;;;;0.70;83.68;100704.34;4981244;28;20042;-83
2022/01/06 10:21:46;;;;;;;6.90;2.10;;;;;;;0.78;84.70;100705.38;4976744;28;20046;-86
2022/01/06 10:24:14;;;;;;;3.47;1.90;;;;;;;0.89;81.56;100706.47;4943692;28;20043;-82
2022/01/06 10:26:53;;;;;;;4.33;1.47;;;;;;;0.83;80.85;100712.41;4956292;28;20050;-82
2022/01/06 10:29:20;;;;;;;4.13;2.13;;;;;;;0.94;81.33;100714.38;4979939;28;20072;-84
2022/01/06 10:31:47;;;;;;;4.87;1.93;;;;;;;1.02;79.38;100716.25;4945269;28;20617;-82
2022/01/06 10:34:13;;;;;;;2.53;1.23;;;;;;;1.01;80.26;100717.13;4962413;28;20551;-83
2022/01/06 10:36:41;;;;;;;5.17;1.37;;;;;;;1.03;80.47;100719.75;4977277;28;20252;-84
2022/01/06 10:39:08;;;;;;;2.57;1.27;;;;;;;1.09;76.44;100720.75;4968001;28;20619;-84
2022/01/06 10:41:37;;;;;;;4.60;1.40;;;;;;;1.09;78.03;100735.44;4963187;28;20049;-84
2022/01/06 10:44:05;;;;;;;4.97;1.53;;;;;;;1.15;77.85;100732.97;4961368;28;20041;-83
2022/01/06 10:46:33;;;;;;;4.83;1.23;;;;;;;1.37;75.68;100742.06;4960340;28;20673;-84
2022/01/06 10:49:18;;;;;;;3.00;0.80;;;;;;;1.33;77.20;100740.22;4951730;28;20165;-83
2022/01/06 10:51:50;;;;;;;1.70;0.90;;;;;;;1.15;75.69;100748.56;4963313;28;20052;-84
2022/01/06 10:54:20;;;;;;;4.67;1.60;;;;;;;1.34;77.20;100748.06;4980514;28;20717;-85
2022/01/06 10:57:00;;;;;;;2.07;0.90;;;;;;;1.49;76.38;100759.59;4976262;28;20043;-83
2022/01/06 10:59:33;;;;;;;1.47;1.00;;;;;;;1.71;71.18;100761.75;4956585;28;20046;-84
2022/01/06 11:02:02;;;;;;;8.40;2.03;;;;;;;1.87;70.88;100749.84;4976279;28;20108;-82
2022/01/06 11:04:30;;;;;;;3.00;1.17;;;;;;;1.89;67.55;100758.56;4994539;28;20525;-85
2022/01/06 11:06:57;;;;;;;3.30;1.00;;;;;;;2.00;68.13;100766.53;4976732;28;20438;-81
2022/01/06 11:09:25;;;;;;;2.83;1.37;;;;;;;2.22;68.07;100769.50;4978190;28;20491;-83
2022/01/06 11:14:28;;;;;;;2.57;0.80;;;;;;;2.44;67.11;100775.06;4989048;28;20128;-83
2022/01/06 11:16:55;;;;;;;1.77;0.73;;;;;;;2.62;64.87;100788.34;4996722;28;20148;-84
2022/01/06 11:19:27;;;;;;;2.33;1.10;;;;;;;2.63;63.94;100787.50;4963394;28;20081;-84
2022/01/06 11:21:59;;;;;;;3.27;0.80;;;;;;;2.58;62.72;100796.97;4957444;28;20050;-83
2022/01/06 11:24:28;;;;;;;1.87;0.87;;;;;;;2.63;59.85;100799.66;4959004;28;20050;-82
2022/01/06 11:26:57;;;;;;;1.83;0.80;;;;;;;2.80;61.77;100811.19;4970692;28;20046;-84
2022/01/06 11:29:26;;;;;;;5.33;1.70;;;;;;;2.90;60.31;100810.47;4981946;28;20048;-85
2022/01/06 11:31:53;;;;;;;9.67;5.73;;;;;;;2.93;60.15;100818.31;4977532;28;20056;-85
2022/01/06 11:34:21;;;;;;;24.50;13.13;;;;;;;2.90;60.12;100827.84;4975258;28;20467;-85
2022/01/06 11:36:50;;;;;;;5.30;2.37;;;;;;;2.90;59.70;100833.94;4958730;28;20046;-83
2022/01/06 11:39:27;;;;;;;3.43;1.50;;;;;;;3.02;61.73;100841.03;4961353;28;20047;-86
2022/01/06 11:41:56;;;;;;;4.07;2.40;;;;;;;2.97;60.91;100838.41;4963061;28;20161;-84